Airfield :
LOGIN :

Register | Disclaimer

   EN    FR    IT 

 










Legend :    VFR   Marginal VFR   IFR   Intensive IFR   Very Intensive IFR
Visi :
Ceiling :
>= 8 km
>= 3000ft
5 to 8 km
1000 to 3000 ft
1500m to 5 km
500 to 1000 ft
800 to 1500m
200 to 500 ft
< 800m
< 200 ft
Symbols :   Thunderstorms  Fog  Heavy snow  Heavy precipitations  Wind > 20 kt
SIGMETs :     Misc.  Thunderstorms  Icing  Turbulence  Mountain Waves  Volcanic Ashes






- Airport Elevation : 59 ft
- IATA code : GSE


ESGP - Save AB

CURRENT METAR :
  • 011520Z 27003KT 8000 -SHRA SCT011CB BKN016 04/03 Q0993

EXPIRED METARs :
  • 011450Z 28004KT 250V310 8000 -SHRA FEW013CB SCT020 BKN033 05/02 Q0992
  • 011420Z 25006KT 9000 -SHRA BKN018CB OVC028 06/03 Q0992
  • 011350Z 24008KT 9000 BKN015 06/03 Q0992
  • 011320Z 24008KT 9999 BKN013 06/03 Q0993
  • 011250Z 26009KT 9999 SCT013 BKN019 06/03 Q0993

TAF TAF ESGP
Valid from the 01 at 15:00 until the 01 at 22:00 UTC


011430Z 0115/0122 22008KT 9999 BKN017
TEMPO 0115/0121 2000 SHRASN BKN005 BKN020CB
BECMG 0116/0118 04015KT



MET'MAP, your aeronautical weather chart ! - Copyright ORBIFLY December 2007 - Disclaimer

ORBIFLY MET'MAP TEAM :

Programming & Development : Alexandra Zaïnal
Original concept : Baudouin d'Aumeries
Technical & hardware support : Manuel Goepfert
Assistance : Marc-Olivier Méhu




SOURCES & CREDITS :

   NOAA